This is the latest recevied weather packets stored in our database for station/object PY2AQN-13. If no packets are shown the sender has not sent any weather packets the latest 10 day(s).
| Time | Temp. | Humidity | Pressure | Rain* | Wind** | Luminosity | Snow |
|---|---|---|---|---|---|---|---|
| 1787420986 | 26.11° C | 33% | 1014.5 hPa | - | - | - | - |
| 1787420386 | 26.67° C | 32% | 1014.3 hPa | - | - | - | - |
| 1787419786 | 26.67° C | 33% | 1014.5 hPa | - | - | - | - |
| 1787419186 | 25.56° C | 35% | 1014.8 hPa | - | - | - | - |
| 1787418586 | 26.67° C | 33% | 1014.6 hPa | - | - | - | - |
| 1787417986 | 26.67° C | 35% | 1014.7 hPa | - | - | - | - |
| 1787417386 | 27.22° C | 34% | 1014.6 hPa | - | - | - | - |
| 1787416786 | 27.22° C | 34% | 1014.8 hPa | - | - | - | - |
| 1787416186 | 26.67° C | 34% | 1014.9 hPa | - | - | - | - |
| 1787415586 | 27.78° C | 35% | 1014.7 hPa | - | - | - | - |
| 1787414986 | 28.33° C | 34% | 1014.8 hPa | - | - | - | - |
| 1787414386 | 27.22° C | 36% | 1015.2 hPa | - | - | - | - |
| 1787413787 | 27.22° C | 36% | 1015.4 hPa | - | - | - | - |
| 1787413186 | 25° C | 42% | 1016.2 hPa | - | - | - | - |
| 1787412587 | 25° C | 45% | 1016.4 hPa | - | - | - | - |
| 1787411992 | 24.44° C | 45% | 1016.6 hPa | - | - | - | - |
| 1787411387 | 24.44° C | 45% | 1016.7 hPa | - | - | - | - |
| 1787410787 | 24.44° C | 45% | 1016.9 hPa | - | - | - | - |
| 1787410187 | 24.44° C | 46% | 1017.1 hPa | - | - | - | - |
| 1787409587 | 24.44° C | 49% | 1017.3 hPa | - | - | - | - |
| 1787408987 | 23.89° C | 50% | 1017.6 hPa | - | - | - | - |
| 1787408387 | 23.89° C | 49% | 1017.7 hPa | - | - | - | - |
| 1787407787 | 23.89° C | 49% | 1017.9 hPa | - | - | - | - |
| 1787407187 | 23.89° C | 49% | 1018.1 hPa | - | - | - | - |
| 1787406587 | 23.33° C | 50% | 1018.2 hPa | - | - | - | - |
* Rain since midnight (hover to see other rain measurements)
** Current wind speed in m/s (hover to see current wind gust speed)